Time;durP1;ratioP1;P1;durP2;ratioP2;P2;SDS_P1;SDS_P2;PMS_P1;PMS_P2;Temp;Humidity;BMP_temperature;BMP_pressure;BME280_temperature;BME280_humidity;BME280_pressure;Samples;Min_cycle;Max_cycle;Signal;HPM_P1;HPM_P2
2022/10/27 00:00:01;;;;;;;8.13;5.60;;;;;;;13.37;99.79;98940.06;5163935;23;20576;-91
2022/10/27 00:02:14;;;;;;;8.23;5.33;;;;;;;13.36;99.77;98945.41;5163802;23;21119;-91
2022/10/27 00:04:17;;;;;;;10.80;5.70;;;;;;;13.34;99.58;98944.69;5138131;23;20583;-91
2022/10/27 00:06:20;;;;;;;12.20;5.70;;;;;;;13.31;100.00;98937.84;5163538;23;20573;-91
2022/10/27 00:08:23;;;;;;;9.03;5.57;;;;;;;13.30;99.46;98946.66;5190639;22;20606;-92
2022/10/27 00:10:26;;;;;;;10.97;5.50;;;;;;;13.29;99.80;98938.88;5164197;23;20584;-91
2022/10/27 00:12:29;;;;;;;10.10;6.10;;;;;;;13.29;99.81;98941.50;5163398;23;20624;-92
2022/10/27 00:14:34;;;;;;;13.60;6.23;;;;;;;13.27;99.73;98932.91;5190087;22;20586;-90
2022/10/27 00:16:37;;;;;;;12.20;6.77;;;;;;;13.25;99.74;98937.44;5138810;23;20590;-91
2022/10/27 00:18:40;;;;;;;8.30;5.93;;;;;;;13.21;99.99;98939.41;5138621;23;20569;-92
2022/10/27 00:20:43;;;;;;;9.10;6.00;;;;;;;13.19;99.53;98936.03;5138730;23;20970;-91
2022/10/27 00:22:46;;;;;;;9.17;5.83;;;;;;;13.19;99.75;98932.59;5163476;23;20628;-92
2022/10/27 00:24:49;;;;;;;9.73;5.70;;;;;;;13.18;99.36;98930.91;5163279;23;20638;-91
2022/10/27 00:26:52;;;;;;;8.93;6.33;;;;;;;13.17;99.70;98936.25;5138769;23;20580;-92
2022/10/27 00:28:55;;;;;;;8.93;5.97;;;;;;;13.16;99.73;98926.72;5163487;23;20965;-91
2022/10/27 00:31:01;;;;;;;11.37;6.83;;;;;;;13.14;99.41;98921.59;5138702;23;20591;-91
2022/10/27 00:33:04;;;;;;;17.20;7.03;;;;;;;13.14;100.00;98934.69;5163988;23;20990;-91
2022/10/27 00:35:08;;;;;;;8.60;6.10;;;;;;;13.13;100.00;98935.59;5164193;23;20610;-91
2022/10/27 00:37:11;;;;;;;9.50;6.07;;;;;;;13.09;99.66;98933.28;5139072;23;20962;-91
2022/10/27 00:39:14;;;;;;;9.63;6.37;;;;;;;13.07;99.53;98935.16;5138183;23;21110;-91
2022/10/27 00:41:25;;;;;;;10.00;6.00;;;;;;;13.05;99.16;98943.13;5191947;22;20603;-90
2022/10/27 00:43:30;;;;;;;8.10;5.70;;;;;;;13.05;98.94;98947.50;5140481;23;21175;-92
2022/10/27 00:45:33;;;;;;;12.03;6.83;;;;;;;13.01;99.12;98946.88;5164414;23;20580;-92
2022/10/27 00:47:39;;;;;;;9.80;5.57;;;;;;;13.02;99.76;98947.69;5165933;23;20572;-91
2022/10/27 00:49:44;;;;;;;7.87;5.03;;;;;;;12.98;99.12;98949.69;5165138;23;20585;-90
2022/10/27 00:51:50;;;;;;;12.13;5.53;;;;;;;12.98;99.46;98946.25;5165803;23;20616;-91
2022/10/27 00:53:54;;;;;;;11.13;5.17;;;;;;;12.97;99.17;98942.75;5140978;23;20921;-90
2022/10/27 00:55:57;;;;;;;10.63;6.00;;;;;;;12.97;98.83;98939.31;5164579;23;20671;-90
2022/10/27 00:58:02;;;;;;;9.27;5.73;;;;;;;12.97;98.75;98952.41;5139658;23;20585;-91
2022/10/27 01:00:07;;;;;;;12.17;6.17;;;;;;;12.96;99.44;98942.84;5139785;23;20585;-91
2022/10/27 01:02:10;;;;;;;7.43;5.17;;;;;;;12.95;98.95;98947.25;5164380;23;20679;-90
2022/10/27 01:04:16;;;;;;;8.00;5.43;;;;;;;12.94;99.27;98947.34;5139055;23;20899;-91
2022/10/27 01:06:19;;;;;;;8.10;5.57;;;;;;;12.94;99.22;98945.56;5165196;23;20587;-90
2022/10/27 01:08:23;;;;;;;8.80;5.10;;;;;;;12.93;99.21;98953.53;5164676;22;20608;-91
2022/10/27 01:10:27;;;;;;;11.07;4.43;;;;;;;12.93;99.08;98949.16;5140531;23;20660;-91
2022/10/27 01:12:30;;;;;;;7.60;5.10;;;;;;;12.93;100.00;98953.53;5165381;23;20600;-91
2022/10/27 01:14:33;;;;;;;8.70;5.07;;;;;;;12.91;99.44;98944.94;5190966;22;20918;-91
2022/10/27 01:16:40;;;;;;;6.80;4.80;;;;;;;12.90;99.06;98949.34;5191825;22;20607;-92
2022/10/27 01:18:51;;;;;;;5.60;4.50;;;;;;;12.89;100.00;98941.59;5139530;23;20584;-91
2022/10/27 01:21:25;;;;;;;9.47;5.20;;;;;;;12.89;99.69;98942.41;5164911;23;20906;-91
2022/10/27 01:23:36;;;;;;;7.83;4.87;;;;;;;12.88;99.71;98940.72;5139460;23;20671;-91
2022/10/27 01:26:25;;;;;;;8.20;4.97;;;;;;;12.87;99.42;98938.19;5164279;23;20627;-91
2022/10/27 01:28:57;;;;;;;7.43;4.77;;;;;;;12.84;99.49;98944.50;5095794;23;20615;-91
2022/10/27 01:31:04;;;;;;;7.63;4.43;;;;;;;12.80;98.82;98936.91;5191975;22;20586;-91
2022/10/27 01:33:11;;;;;;;7.30;4.40;;;;;;;12.75;98.49;98938.97;5164775;23;20646;-92
2022/10/27 01:35:21;;;;;;;8.43;4.60;;;;;;;12.70;98.49;98944.50;5191221;22;21500;-91
2022/10/27 01:37:29;;;;;;;21.60;5.67;;;;;;;12.65;98.55;98940.50;5164730;23;20666;-91
2022/10/27 01:39:37;;;;;;;6.20;4.93;;;;;;;12.62;97.66;98938.06;5139518;23;20600;-91
2022/10/27 01:41:44;;;;;;;13.47;5.63;;;;;;;12.61;97.99;98932.91;5139690;23;20711;-91
2022/10/27 01:43:49;;;;;;;9.23;5.03;;;;;;;12.64;99.65;98936.19;5139916;23;20664;-91
2022/10/27 01:45:53;;;;;;;6.90;5.00;;;;;;;12.65;99.16;98944.91;5139387;23;20656;-91
2022/10/27 01:47:57;;;;;;;8.47;5.00;;;;;;;12.63;99.51;98933.66;5164928;23;20908;-91
2022/10/27 01:50:00;;;;;;;8.10;5.30;;;;;;;12.60;98.75;98936.47;5190686;22;20567;-91
2022/10/27 01:52:06;;;;;;;7.50;5.13;;;;;;;12.59;98.57;98929.56;5138953;23;20667;-92
2022/10/27 01:54:09;;;;;;;9.37;4.70;;;;;;;12.57;99.29;98931.41;5191136;22;20886;-91
2022/10/27 01:56:35;;;;;;;8.63;5.57;;;;;;;12.58;98.84;98938.34;5164495;23;20904;-91
2022/10/27 01:58:51;;;;;;;8.47;4.90;;;;;;;12.57;99.44;98939.28;5138988;23;20619;-91
2022/10/27 02:01:08;;;;;;;11.23;5.10;;;;;;;12.52;98.39;98929.09;5139826;23;20577;-91
2022/10/27 02:03:15;;;;;;;5.03;4.43;;;;;;;12.49;99.28;98929.28;5164935;23;20576;-91
2022/10/27 02:05:21;;;;;;;6.67;4.60;;;;;;;12.44;99.00;98925.28;5163609;23;20600;-91
2022/10/27 02:07:31;;;;;;;5.63;3.90;;;;;;;12.40;97.68;98926.41;5191599;22;20571;-90
2022/10/27 02:09:39;;;;;;;5.30;4.20;;;;;;;12.39;97.45;98920.34;5164816;23;21249;-91
2022/10/27 02:11:44;;;;;;;9.97;5.33;;;;;;;12.41;97.50;98920.25;5139665;23;20651;-91
2022/10/27 02:13:47;;;;;;;10.90;5.13;;;;;;;12.41;98.21;98926.31;5164517;23;20571;-91
2022/10/27 02:15:52;;;;;;;5.77;4.73;;;;;;;12.39;98.53;98919.53;5164507;23;20638;-90
2022/10/27 02:17:59;;;;;;;6.43;4.77;;;;;;;12.43;99.77;98926.22;5190037;22;21094;-90
2022/10/27 02:20:06;;;;;;;6.80;5.03;;;;;;;12.42;99.13;98921.94;5163577;23;20568;-91
2022/10/27 02:22:09;;;;;;;6.20;4.23;;;;;;;12.39;98.19;98922.97;5164643;23;20568;-91
2022/10/27 02:24:13;;;;;;;7.53;4.40;;;;;;;12.35;99.03;98913.63;5139069;23;20639;-90
2022/10/27 02:26:19;;;;;;;6.10;4.87;;;;;;;12.34;97.71;98914.56;5138681;23;21117;-91
2022/10/27 02:28:25;;;;;;;8.10;5.03;;;;;;;12.33;97.58;98906.81;5139671;23;21452;-91
2022/10/27 02:30:29;;;;;;;8.70;4.90;;;;;;;12.36;98.96;98917.94;5164073;23;21148;-91
2022/10/27 02:32:32;;;;;;;20.27;6.57;;;;;;;12.37;100.00;98916.13;5164611;23;21180;-91
2022/10/27 02:34:36;;;;;;;10.77;5.60;;;;;;;12.35;100.00;98918.03;5163729;23;20568;-91
2022/10/27 02:36:41;;;;;;;15.30;5.77;;;;;;;12.35;99.44;98918.84;5164141;23;20611;-91
2022/10/27 02:38:44;;;;;;;12.03;5.73;;;;;;;12.33;99.08;98919.91;5163673;23;20576;-91
2022/10/27 02:40:47;;;;;;;13.87;6.03;;;;;;;12.31;99.71;98919.13;5191772;22;20548;-91
2022/10/27 02:42:50;;;;;;;8.33;5.47;;;;;;;12.31;100.00;98921.75;5139592;23;20569;-91
2022/10/27 02:44:54;;;;;;;7.63;4.63;;;;;;;12.27;99.92;98918.50;5138841;23;20613;-90
2022/10/27 02:46:57;;;;;;;14.10;5.90;;;;;;;12.27;100.00;98925.50;5139243;23;20569;-91
2022/10/27 02:49:04;;;;;;;13.47;5.60;;;;;;;12.27;99.75;98917.66;5163230;23;21190;-91
2022/10/27 02:51:07;;;;;;;18.40;6.37;;;;;;;12.26;98.65;98913.34;5191304;22;21127;-91
2022/10/27 02:53:11;;;;;;;12.90;5.97;;;;;;;12.24;99.67;98905.59;5164494;23;21147;-91
2022/10/27 02:55:14;;;;;;;7.67;5.10;;;;;;;12.23;100.00;98914.38;5138287;23;20582;-92
2022/10/27 02:57:18;;;;;;;11.23;5.67;;;;;;;12.22;99.76;98914.47;5164300;23;20641;-91
2022/10/27 02:59:22;;;;;;;7.40;5.60;;;;;;;12.22;99.91;98922.31;5139199;23;20592;-92
2022/10/27 03:01:25;;;;;;;8.40;5.20;;;;;;;12.22;99.55;98922.31;5164093;23;21115;-91
2022/10/27 03:03:28;;;;;;;19.63;6.60;;;;;;;12.19;99.62;98922.50;5164480;23;20584;-91
2022/10/27 03:05:31;;;;;;;13.50;6.53;;;;;;;12.20;100.00;98918.97;5137305;23;20601;-91
2022/10/27 03:07:34;;;;;;;15.07;6.70;;;;;;;12.18;100.00;98915.63;5164260;22;20691;-91
2022/10/27 03:09:38;;;;;;;28.10;7.67;;;;;;;12.20;100.00;98926.81;5138318;23;20593;-91
2022/10/27 03:11:41;;;;;;;28.73;6.63;;;;;;;12.19;99.51;98935.56;5164010;23;20568;-91
2022/10/27 03:13:48;;;;;;;11.77;5.60;;;;;;;12.20;99.51;98939.88;5138951;23;20643;-90
2022/10/27 03:15:51;;;;;;;22.80;6.80;;;;;;;12.19;99.40;98938.19;5163761;23;20572;-92
2022/10/27 03:17:54;;;;;;;22.90;6.33;;;;;;;12.20;100.00;98933.81;5164527;23;20986;-90
2022/10/27 03:19:58;;;;;;;12.33;5.90;;;;;;;12.15;99.42;98934.09;5163450;23;20577;-90
2022/10/27 03:22:06;;;;;;;17.97;6.60;;;;;;;12.05;100.00;98938.19;5138971;23;21007;-92
2022/10/27 03:24:09;;;;;;;22.37;6.87;;;;;;;11.95;98.90;98933.63;5164183;23;20661;-91
2022/10/27 03:26:13;;;;;;;20.83;6.53;;;;;;;11.83;99.54;98929.97;5138686;23;20637;-91
2022/10/27 03:28:17;;;;;;;32.53;6.40;;;;;;;11.77;99.34;98932.09;5164259;23;20587;-91
2022/10/27 03:30:20;;;;;;;21.23;5.90;;;;;;;11.72;98.67;98935.94;5190294;22;20611;-91
2022/10/27 03:32:23;;;;;;;16.23;5.97;;;;;;;11.68;99.38;98939.66;5164109;23;20549;-91
2022/10/27 03:34:26;;;;;;;21.20;5.60;;;;;;;11.63;98.01;98937.31;5138612;23;20581;-91
2022/10/27 03:36:29;;;;;;;17.87;5.30;;;;;;;11.62;99.79;98943.50;5163809;23;21107;-91
2022/10/27 03:38:32;;;;;;;23.10;6.80;;;;;;;11.57;98.87;98940.28;5163726;23;20616;-90
2022/10/27 03:40:35;;;;;;;28.37;6.27;;;;;;;11.55;99.10;98942.16;5138831;23;20585;-90
2022/10/27 03:42:42;;;;;;;41.13;6.27;;;;;;;11.50;99.02;98933.75;5138869;23;20577;-91
2022/10/27 03:44:45;;;;;;;45.70;8.30;;;;;;;11.48;99.71;98937.38;5164009;23;20592;-89
2022/10/27 03:46:48;;;;;;;24.43;6.40;;;;;;;11.46;99.89;98937.44;5139421;23;20635;-90
2022/10/27 03:48:51;;;;;;;34.13;6.17;;;;;;;11.46;99.68;98936.59;5139281;23;20601;-90
2022/10/27 03:50:54;;;;;;;30.63;7.00;;;;;;;11.45;100.00;98937.53;5163508;23;20584;-91
2022/10/27 03:52:57;;;;;;;23.40;6.90;;;;;;;11.43;100.00;98931.56;5164486;23;20581;-91
2022/10/27 03:55:00;;;;;;;9.63;4.40;;;;;;;11.44;100.00;98931.47;5164005;23;20667;-91
2022/10/27 03:57:03;;;;;;;11.13;4.90;;;;;;;11.44;100.00;98930.59;5162203;23;20603;-90
2022/10/27 03:59:08;;;;;;;10.47;4.83;;;;;;;11.45;100.00;98932.28;5163857;23;20633;-91
2022/10/27 04:01:11;;;;;;;11.10;4.93;;;;;;;11.47;100.00;98925.22;5163975;23;20583;-90
2022/10/27 04:03:15;;;;;;;22.20;5.80;;;;;;;11.49;100.00;98933.84;5139020;23;20589;-91
2022/10/27 04:05:18;;;;;;;11.90;5.30;;;;;;;11.49;100.00;98928.63;5163050;23;20616;-91
2022/10/27 04:07:21;;;;;;;13.20;5.00;;;;;;;11.52;100.00;98931.06;5139334;23;20565;-91
2022/10/27 04:09:24;;;;;;;16.10;4.90;;;;;;;11.53;100.00;98930.09;5163608;23;21179;-90
2022/10/27 04:11:27;;;;;;;13.43;4.67;;;;;;;11.53;100.00;98930.09;5138217;23;20585;-92
2022/10/27 04:13:29;;;;;;;13.37;5.00;;;;;;;11.53;100.00;98930.97;5138739;23;20667;-90
2022/10/27 04:15:34;;;;;;;10.60;4.63;;;;;;;11.54;100.00;98931.78;5138605;23;20652;-91
2022/10/27 04:17:37;;;;;;;7.90;4.50;;;;;;;11.56;99.94;98935.16;5140253;23;20588;-92
2022/10/27 04:19:40;;;;;;;9.07;4.67;;;;;;;11.55;100.00;98930.88;5140519;23;20587;-89
2022/10/27 04:21:43;;;;;;;7.33;3.90;;;;;;;11.56;99.69;98928.19;5164751;23;20583;-90
2022/10/27 04:23:46;;;;;;;8.23;4.30;;;;;;;11.57;100.00;98931.63;5164102;23;20709;-90
2022/10/27 04:25:49;;;;;;;10.53;3.90;;;;;;;11.53;100.00;98932.72;5137918;23;20610;-90
2022/10/27 04:27:57;;;;;;;13.93;6.40;;;;;;;11.54;100.00;98932.63;5192322;22;20646;-90
2022/10/27 04:30:00;;;;;;;8.63;4.67;;;;;;;11.54;98.90;98934.41;5164312;23;20584;-89
2022/10/27 04:32:05;;;;;;;6.60;4.70;;;;;;;11.50;100.00;98927.66;5164262;23;20580;-88
2022/10/27 04:34:08;;;;;;;6.20;5.60;;;;;;;11.50;98.48;98933.75;5138739;23;20577;-89
2022/10/27 04:36:11;;;;;;;8.87;6.70;;;;;;;11.53;100.00;98930.09;5164119;23;20568;-91
2022/10/27 04:38:14;;;;;;;9.40;6.20;;;;;;;11.57;100.00;98932.44;5165783;23;20580;-90
2022/10/27 04:40:17;;;;;;;7.70;5.13;;;;;;;11.60;98.89;98932.25;5164557;23;20563;-90
2022/10/27 04:42:20;;;;;;;5.33;4.63;;;;;;;11.59;99.25;98935.84;5139951;23;20664;-91
2022/10/27 04:44:23;;;;;;;15.00;6.10;;;;;;;11.57;98.56;98922.00;5139455;23;21178;-90
2022/10/27 04:46:26;;;;;;;21.63;6.10;;;;;;;11.57;98.06;98931.63;5163998;23;20662;-90
2022/10/27 04:48:31;;;;;;;12.60;5.30;;;;;;;11.55;99.45;98925.66;5163994;23;20595;-92
2022/10/27 04:50:34;;;;;;;9.63;4.87;;;;;;;11.53;99.89;98919.66;5139587;23;20589;-91
2022/10/27 04:52:37;;;;;;;12.00;5.00;;;;;;;11.49;98.55;98926.84;5164550;23;20579;-91
2022/10/27 04:54:45;;;;;;;21.57;4.70;;;;;;;11.45;97.67;98927.06;5140302;23;20647;-90
2022/10/27 04:56:49;;;;;;;31.63;6.80;;;;;;;11.43;97.37;98926.34;5165188;23;20572;-90
2022/10/27 04:58:52;;;;;;;41.83;7.43;;;;;;;11.41;97.71;98926.44;5164628;23;21131;-90
2022/10/27 05:00:55;;;;;;;33.87;7.33;;;;;;;11.39;99.28;98927.44;5190495;22;20674;-89
2022/10/27 05:02:59;;;;;;;31.53;8.00;;;;;;;11.42;98.96;98927.25;5191727;22;20645;-91
2022/10/27 05:05:04;;;;;;;29.70;7.90;;;;;;;11.39;99.38;98927.44;5165006;23;20580;-91
2022/10/27 05:07:07;;;;;;;21.13;8.23;;;;;;;11.39;99.64;98935.25;5139450;23;21021;-91
2022/10/27 05:09:10;;;;;;;27.63;8.47;;;;;;;11.42;100.00;98935.91;5164413;22;20630;-91
2022/10/27 05:11:13;;;;;;;36.23;9.07;;;;;;;11.44;100.00;98939.31;5165264;23;20576;-91
2022/10/27 05:13:18;;;;;;;24.80;7.80;;;;;;;11.45;100.00;98942.75;5164782;23;20560;-91
2022/10/27 05:15:21;;;;;;;27.27;7.10;;;;;;;11.45;100.00;98937.53;5138904;23;20601;-92
2022/10/27 05:17:24;;;;;;;32.40;7.93;;;;;;;11.41;100.00;98936.00;5164932;23;20572;-92
2022/10/27 05:19:28;;;;;;;22.93;7.23;;;;;;;11.36;100.00;98932.84;5165167;23;21111;-90
2022/10/27 05:21:32;;;;;;;21.83;6.60;;;;;;;11.35;100.00;98929.38;5189179;22;21113;-90
2022/10/27 05:23:35;;;;;;;18.47;6.30;;;;;;;11.33;100.00;98936.44;5164926;23;20572;-92
2022/10/27 05:25:38;;;;;;;17.50;5.60;;;;;;;11.29;99.96;98941.97;5164829;23;20576;-90
2022/10/27 05:27:42;;;;;;;16.50;5.67;;;;;;;11.22;98.27;98935.41;5165549;23;20586;-90
2022/10/27 05:29:44;;;;;;;16.27;4.97;;;;;;;11.17;99.83;98929.63;5165684;23;20587;-91
2022/10/27 05:31:47;;;;;;;16.60;5.03;;;;;;;11.12;98.91;98929.00;5190643;22;20562;-90
2022/10/27 05:33:50;;;;;;;12.20;4.73;;;;;;;11.08;98.37;98919.69;5139758;23;20628;-91
2022/10/27 05:35:53;;;;;;;19.70;5.60;;;;;;;11.02;98.69;98922.66;5139134;23;20592;-91
2022/10/27 05:37:58;;;;;;;11.53;4.57;;;;;;;10.97;97.31;98922.06;5140011;23;20612;-90
2022/10/27 05:40:01;;;;;;;14.57;5.43;;;;;;;10.95;98.65;98910.88;5164113;23;20580;-90
2022/10/27 05:42:04;;;;;;;11.40;5.30;;;;;;;10.96;97.80;98923.00;5165113;23;20604;-91
2022/10/27 05:44:07;;;;;;;7.10;5.10;;;;;;;10.96;99.51;98925.59;5164512;23;20618;-90
2022/10/27 05:46:10;;;;;;;6.60;4.70;;;;;;;10.98;99.47;98926.34;5191171;22;20653;-90
2022/10/27 05:48:13;;;;;;;8.30;5.07;;;;;;;11.01;100.00;98926.19;5191171;22;21213;-90
2022/10/27 05:50:16;;;;;;;5.90;4.70;;;;;;;11.02;99.00;98927.88;5165246;23;20673;-90
2022/10/27 05:52:19;;;;;;;14.10;5.90;;;;;;;11.05;98.89;98927.69;5164312;23;20573;-90
2022/10/27 05:54:24;;;;;;;11.37;6.10;;;;;;;11.07;100.00;98927.63;5164847;23;20637;-90
2022/10/27 05:56:27;;;;;;;8.33;5.27;;;;;;;11.07;99.41;98925.84;5163261;23;20561;-89
2022/10/27 05:58:30;;;;;;;9.90;5.20;;;;;;;11.07;98.61;98925.84;5139130;23;20605;-90
2022/10/27 06:00:36;;;;;;;11.33;5.50;;;;;;;11.06;99.37;98918.91;5164434;23;20177;-89
2022/10/27 06:02:39;;;;;;;10.67;5.30;;;;;;;11.04;100.00;98926.00;5164742;23;21093;-89
2022/10/27 06:04:42;;;;;;;21.53;8.20;;;;;;;11.05;99.02;98922.47;5191313;22;20629;-90
2022/10/27 06:06:45;;;;;;;9.60;5.30;;;;;;;11.07;100.00;98922.41;5189917;22;20722;-90
2022/10/27 06:08:48;;;;;;;6.20;4.87;;;;;;;11.07;99.98;98920.63;5190129;22;20611;-89
2022/10/27 06:10:52;;;;;;;6.80;5.40;;;;;;;11.10;99.76;98924.81;5164648;23;20599;-89
2022/10/27 06:13:00;;;;;;;9.03;5.40;;;;;;;11.10;99.53;98922.22;5163628;23;20580;-90
2022/10/27 06:15:04;;;;;;;6.43;5.77;;;;;;;11.11;99.38;98923.88;5163167;23;20575;-90
2022/10/27 06:17:07;;;;;;;8.82;5.40;;;;;;;11.10;100.00;98920.44;5162917;23;20736;-90
2022/10/27 06:19:10;;;;;;;7.35;5.32;;;;;;;11.12;100.00;98925.56;5136577;23;20257;-90
2022/10/27 06:21:13;;;;;;;5.33;4.83;;;;;;;11.13;99.53;98925.47;5137644;23;20643;-90
2022/10/27 06:23:16;;;;;;;7.57;5.23;;;;;;;11.14;98.19;98921.97;5131810;23;20584;-90
2022/10/27 06:25:19;;;;;;;9.73;5.80;;;;;;;11.20;98.75;98932.06;5187380;22;20674;-90
2022/10/27 06:27:23;;;;;;;7.03;5.43;;;;;;;11.26;98.39;98934.31;5138206;23;21053;-90
2022/10/27 06:29:26;;;;;;;6.80;5.90;;;;;;;11.32;99.64;98932.19;5164896;23;21169;-90
2022/10/27 06:31:29;;;;;;;7.07;5.07;;;;;;;11.44;100.00;98938.44;5191209;22;20571;-90
2022/10/27 06:33:32;;;;;;;8.27;5.70;;;;;;;11.53;99.01;98941.41;5164780;23;20576;-90
2022/10/27 06:35:36;;;;;;;7.30;6.20;;;;;;;11.66;98.14;98941.53;5139351;23;20684;-90
2022/10/27 06:37:39;;;;;;;6.87;4.87;;;;;;;11.78;98.54;98946.84;5138004;23;20572;-90
2022/10/27 06:39:42;;;;;;;8.77;5.73;;;;;;;11.91;99.03;98942.59;5137698;23;20581;-89
2022/10/27 06:41:45;;;;;;;6.67;5.60;;;;;;;12.04;98.08;98952.22;5189181;22;20618;-90
2022/10/27 06:43:59;;;;;;;10.43;6.17;;;;;;;12.21;97.87;98957.28;5191248;22;20942;-90
2022/10/27 06:46:02;;;;;;;9.53;6.70;;;;;;;12.37;99.05;98963.22;5189780;22;20656;-89
2022/10/27 06:48:07;;;;;;;8.70;6.10;;;;;;;12.52;99.11;98960.50;5163337;23;20611;-88
2022/10/27 06:50:10;;;;;;;11.50;6.53;;;;;;;12.66;98.32;98968.34;5137602;23;20913;-90
2022/10/27 06:52:13;;;;;;;9.03;6.00;;;;;;;12.75;98.04;98971.22;5138589;23;20689;-90
2022/10/27 06:54:16;;;;;;;8.53;6.07;;;;;;;12.87;98.22;98969.63;5139135;23;20581;-89
2022/10/27 06:56:20;;;;;;;7.67;6.10;;;;;;;12.99;98.30;98985.41;5138772;23;20581;-87
2022/10/27 06:58:22;;;;;;;8.80;5.67;;;;;;;13.15;97.62;98987.91;5138539;23;20579;-89
2022/10/27 07:00:27;;;;;;;8.03;5.93;;;;;;;13.28;98.02;98997.50;5139251;23;20593;-89
2022/10/27 07:02:30;;;;;;;12.60;6.63;;;;;;;13.41;98.07;98998.34;5139145;23;20635;-90
2022/10/27 07:04:33;;;;;;;6.77;5.53;;;;;;;13.53;97.48;99001.03;5163758;23;20969;-89
2022/10/27 07:06:36;;;;;;;10.70;6.10;;;;;;;13.64;97.19;98998.53;5163354;23;20588;-89
2022/10/27 07:08:39;;;;;;;9.30;6.77;;;;;;;13.73;96.81;99001.38;5163722;22;20658;-90
2022/10/27 07:10:43;;;;;;;8.33;7.20;;;;;;;13.86;97.07;98991.78;5191128;22;20700;-90
2022/10/27 07:12:53;;;;;;;12.73;6.90;;;;;;;13.98;95.85;98997.97;5164027;23;20584;-87
2022/10/27 07:14:57;;;;;;;8.67;6.83;;;;;;;14.09;96.47;98998.97;5138194;23;20608;-90
2022/10/27 07:17:01;;;;;;;8.83;6.93;;;;;;;14.23;95.97;98996.22;5137788;23;21246;-90
2022/10/27 07:19:04;;;;;;;11.10;8.60;;;;;;;14.35;95.17;98998.00;5138262;23;20658;-88
2022/10/27 07:21:07;;;;;;;13.97;8.90;;;;;;;14.42;96.59;99004.53;5138834;23;20585;-90
2022/10/27 07:23:11;;;;;;;12.93;9.37;;;;;;;14.49;94.92;99003.16;5137980;23;21138;-89
2022/10/27 07:25:14;;;;;;;12.30;9.20;;;;;;;14.58;94.15;99003.34;5161699;23;20561;-89
2022/10/27 07:27:17;;;;;;;14.20;8.63;;;;;;;14.70;94.39;99005.97;5163454;23;20646;-89
2022/10/27 07:29:20;;;;;;;11.60;8.10;;;;;;;14.77;94.33;99003.75;5190184;22;20591;-89
2022/10/27 07:31:23;;;;;;;11.03;7.00;;;;;;;14.88;94.61;99001.19;5137360;23;20577;-89
2022/10/27 07:33:27;;;;;;;10.27;6.83;;;;;;;14.99;93.60;98990.75;5138824;23;21123;-89
2022/10/27 07:35:32;;;;;;;9.77;6.60;;;;;;;15.11;95.85;98998.63;5138099;23;20571;-90
2022/10/27 07:37:35;;;;;;;11.90;6.90;;;;;;;15.18;93.38;98994.59;5138330;23;20666;-89
2022/10/27 07:39:38;;;;;;;8.80;6.90;;;;;;;15.20;93.23;98993.56;5163541;23;20607;-90
2022/10/27 07:41:41;;;;;;;12.43;7.57;;;;;;;15.30;94.52;98996.34;5164098;23;20597;-89
2022/10/27 07:43:44;;;;;;;9.83;7.03;;;;;;;15.39;92.17;98993.06;5138827;23;20579;-89
2022/10/27 07:45:47;;;;;;;8.40;7.50;;;;;;;15.42;94.40;98995.47;5190063;22;20582;-90
2022/10/27 07:47:51;;;;;;;13.53;6.37;;;;;;;15.55;93.73;98993.63;5163072;23;20640;-89
2022/10/27 07:49:56;;;;;;;14.37;7.20;;;;;;;15.67;93.10;99015.41;5163104;23;20696;-89
2022/10/27 07:51:59;;;;;;;10.77;7.60;;;;;;;15.71;93.32;99006.34;5138839;23;21140;-90
2022/10/27 07:54:02;;;;;;;10.13;7.43;;;;;;;15.79;92.00;99004.00;5162176;23;20585;-89
2022/10/27 07:56:05;;;;;;;10.50;7.00;;;;;;;15.89;91.71;99014.66;5138063;23;20639;-90
2022/10/27 07:58:11;;;;;;;11.87;6.97;;;;;;;16.03;93.52;99017.94;5138878;23;20658;-90
2022/10/27 08:00:15;;;;;;;9.20;6.10;;;;;;;16.11;93.46;99023.47;5138907;23;20594;-89
2022/10/27 08:02:18;;;;;;;8.60;5.70;;;;;;;16.22;93.96;99020.88;5137529;23;21181;-89
2022/10/27 08:04:21;;;;;;;13.97;7.13;;;;;;;16.30;93.32;99031.69;5188484;22;20569;-89
2022/10/27 08:06:26;;;;;;;8.40;6.00;;;;;;;16.35;93.69;99026.91;5162874;23;20597;-88
2022/10/27 08:08:29;;;;;;;6.93;5.90;;;;;;;16.38;93.19;99032.75;5137190;23;20641;-89
2022/10/27 08:10:34;;;;;;;9.30;6.17;;;;;;;16.49;93.76;99034.56;5137797;23;21054;-91
2022/10/27 08:12:41;;;;;;;9.63;7.07;;;;;;;16.54;92.44;99031.47;5190588;22;20577;-90
2022/10/27 08:14:44;;;;;;;9.27;6.40;;;;;;;16.67;92.94;99041.88;5163861;23;21127;-89
2022/10/27 08:16:47;;;;;;;7.70;6.40;;;;;;;16.76;92.71;99036.75;5162416;23;20591;-87
2022/10/27 08:18:50;;;;;;;9.07;6.50;;;;;;;16.81;92.79;99037.25;5163314;23;20601;-90
2022/10/27 08:20:53;;;;;;;12.30;6.60;;;;;;;16.88;93.40;99040.22;5163698;23;20637;-90
2022/10/27 08:22:59;;;;;;;10.90;7.43;;;;;;;16.91;91.94;99040.81;5137949;23;20603;-90
2022/10/27 08:25:02;;;;;;;11.40;7.23;;;;;;;16.99;93.03;99041.91;5138544;23;20671;-88
2022/10/27 08:27:11;;;;;;;8.63;6.83;;;;;;;17.04;91.75;99047.63;5190534;22;20561;-89
2022/10/27 08:29:14;;;;;;;12.43;8.00;;;;;;;17.07;92.16;99043.94;5163710;23;20673;-89
2022/10/27 08:31:17;;;;;;;14.90;9.33;;;;;;;17.20;93.18;99045.50;5163424;23;20674;-89
2022/10/27 08:33:21;;;;;;;11.30;8.10;;;;;;;17.26;91.87;99041.53;5190490;22;20585;-90
2022/10/27 08:35:24;;;;;;;12.50;7.63;;;;;;;17.37;92.71;99052.06;5189046;22;20550;-91
2022/10/27 08:37:28;;;;;;;10.00;7.50;;;;;;;17.40;92.24;99043.91;5138015;23;21128;-88
2022/10/27 08:39:32;;;;;;;10.90;7.47;;;;;;;17.47;92.03;99045.94;5137561;23;20596;-89
2022/10/27 08:41:39;;;;;;;11.03;9.17;;;;;;;17.55;92.83;99046.97;5138258;23;20609;-88
2022/10/27 08:44:09;;;;;;;10.90;7.20;;;;;;;17.62;92.90;99047.31;5139028;23;20581;-88
2022/10/27 08:46:15;;;;;;;11.53;7.63;;;;;;;17.68;92.57;99052.09;5137996;23;20592;-88
2022/10/27 08:48:23;;;;;;;11.43;8.30;;;;;;;17.76;92.20;99049.69;5138338;23;20624;-88
2022/10/27 08:50:28;;;;;;;15.03;7.47;;;;;;;17.85;93.59;99047.13;5138075;23;20627;-88
2022/10/27 08:52:34;;;;;;;12.43;7.10;;;;;;;17.94;93.08;99055.13;5163144;23;20587;-88
2022/10/27 08:54:39;;;;;;;10.40;7.53;;;;;;;18.01;92.50;99047.50;5138457;23;20561;-88
2022/10/27 08:56:43;;;;;;;10.67;8.03;;;;;;;18.10;91.61;99052.91;5162844;23;21073;-88
2022/10/27 08:58:47;;;;;;;10.93;8.47;;;;;;;18.12;91.27;99042.22;5137287;23;20584;-90
2022/10/27 09:00:54;;;;;;;15.37;10.27;;;;;;;18.18;92.97;99045.19;5161779;23;20578;-89
2022/10/27 09:03:34;;;;;;;16.93;12.77;;;;;;;18.34;93.95;99044.75;5165034;23;20600;-90
2022/10/27 09:05:52;;;;;;;13.83;9.17;;;;;;;18.47;93.66;99043.56;5139196;23;20649;-89
2022/10/27 09:07:59;;;;;;;11.90;8.20;;;;;;;18.58;92.58;99038.22;5140226;23;20617;-90
2022/10/27 09:10:06;;;;;;;13.47;7.27;;;;;;;18.65;91.98;99045.50;5165442;23;20576;-90
2022/10/27 09:12:17;;;;;;;12.37;8.13;;;;;;;18.74;91.30;99038.59;5139621;23;20605;-90
2022/10/27 09:14:32;;;;;;;10.07;6.60;;;;;;;18.80;91.98;99038.88;5165064;23;20565;-90
2022/10/27 09:16:40;;;;;;;11.07;6.90;;;;;;;18.87;91.38;99034.75;5165701;23;20579;-90
2022/10/27 09:18:45;;;;;;;9.33;6.53;;;;;;;18.94;91.19;99030.59;5165530;23;20560;-89
2022/10/27 09:20:51;;;;;;;11.60;6.43;;;;;;;19.00;91.53;99030.06;5165538;23;20687;-90
2022/10/27 09:23:00;;;;;;;10.17;7.03;;;;;;;19.08;90.28;99023.19;5165065;23;20600;-90
2022/10/27 09:25:14;;;;;;;10.90;6.40;;;;;;;19.15;91.43;99028.75;5165204;23;20616;-90
2022/10/27 09:27:17;;;;;;;8.73;6.87;;;;;;;19.20;91.64;99037.13;5140280;23;20574;-90
2022/10/27 09:29:21;;;;;;;10.07;6.93;;;;;;;19.32;91.35;99038.69;5139949;23;20601;-90
2022/10/27 09:31:32;;;;;;;7.63;6.60;;;;;;;19.44;91.39;99038.47;5165310;23;20580;-90
2022/10/27 09:33:36;;;;;;;14.87;6.80;;;;;;;19.56;91.84;99042.63;5165537;23;20582;-90
2022/10/27 09:35:39;;;;;;;12.40;6.70;;;;;;;19.61;90.10;99032.50;5164865;23;20688;-90
2022/10/27 09:37:43;;;;;;;9.67;6.27;;;;;;;19.69;90.60;99041.41;5138833;23;20977;-90
2022/10/27 09:39:47;;;;;;;13.93;6.17;;;;;;;19.75;90.28;99038.19;5163915;23;20580;-89
2022/10/27 09:41:51;;;;;;;9.77;6.30;;;;;;;19.81;88.85;99039.47;5138596;23;20585;-90